Time;durP1;ratioP1;P1;durP2;ratioP2;P2;SDS_P1;SDS_P2;PMS_P1;PMS_P2;Temp;Humidity;BMP_temperature;BMP_pressure;BME280_temperature;BME280_humidity;BME280_pressure;Samples;Min_cycle;Max_cycle;Signal;HPM_P1;HPM_P2
2021/08/21 00:00:35;;;;;;;6.35;4.65;;;14.40;99.90;;;;;;5036916;28;20498;-76
2021/08/21 00:03:02;;;;;;;5.80;4.65;;;14.40;99.90;;;;;;5036282;28;20045;-77
2021/08/21 00:05:30;;;;;;;5.45;4.68;;;14.40;99.90;;;;;;5052001;28;20072;-77
2021/08/21 00:07:56;;;;;;;6.28;5.05;;;14.40;99.90;;;;;;5042826;28;20464;-77
2021/08/21 00:10:23;;;;;;;5.70;5.10;;;14.40;99.90;;;;;;5044422;28;20041;-78
2021/08/21 00:12:50;;;;;;;6.65;4.68;;;14.50;99.90;;;;;;5036684;28;20095;-77
2021/08/21 00:15:19;;;;;;;5.32;4.63;;;14.50;99.90;;;;;;5050534;28;20041;-78
2021/08/21 00:17:46;;;;;;;6.55;5.38;;;14.50;99.90;;;;;;5057595;28;20041;-77
2021/08/21 00:20:13;;;;;;;6.80;6.03;;;14.60;99.90;;;;;;5054008;28;20045;-78
2021/08/21 00:22:42;;;;;;;8.23;5.82;;;14.60;99.90;;;;;;5057024;28;20036;-80
2021/08/21 00:25:10;;;;;;;6.70;5.57;;;14.50;99.90;;;;;;5056165;28;20090;-81
2021/08/21 00:27:37;;;;;;;5.82;5.30;;;14.40;99.90;;;;;;5056078;28;20052;-78
2021/08/21 00:30:03;;;;;;;7.20;5.53;;;14.40;99.90;;;;;;5055565;28;20095;-78
2021/08/21 00:32:31;;;;;;;9.63;5.53;;;14.40;99.90;;;;;;5055907;28;20049;-78
2021/08/21 00:34:58;;;;;;;6.03;5.32;;;14.30;99.90;;;;;;5048710;28;20045;-78
2021/08/21 00:37:24;;;;;;;6.40;4.93;;;14.30;99.90;;;;;;5043793;28;20071;-79
2021/08/21 00:39:52;;;;;;;8.05;5.47;;;14.30;99.90;;;;;;5054471;28;20040;-78
2021/08/21 00:42:19;;;;;;;6.18;4.90;;;14.30;99.90;;;;;;5041474;28;20050;-78
2021/08/21 00:44:46;;;;;;;6.25;5.15;;;14.40;99.90;;;;;;5049013;28;20143;-78
2021/08/21 00:47:14;;;;;;;8.20;5.60;;;14.30;99.90;;;;;;5054996;28;20040;-77
2021/08/21 00:49:42;;;;;;;6.38;5.65;;;14.40;99.90;;;;;;5053818;28;20103;-77
2021/08/21 00:52:14;;;;;;;6.32;5.25;;;14.40;99.90;;;;;;5054553;28;20037;-77
2021/08/21 00:54:41;;;;;;;5.20;4.57;;;14.50;99.90;;;;;;5051666;28;20452;-78
2021/08/21 00:57:11;;;;;;;5.80;4.50;;;14.50;99.90;;;;;;5041093;28;20049;-77
2021/08/21 00:59:39;;;;;;;6.55;5.28;;;14.40;99.90;;;;;;5034492;28;20042;-76
2021/08/21 01:02:06;;;;;;;6.97;5.72;;;14.40;99.90;;;;;;5036146;28;20053;-78
2021/08/21 01:04:34;;;;;;;8.65;5.43;;;14.30;99.90;;;;;;5034916;28;20045;-77
2021/08/21 01:07:01;;;;;;;6.88;5.70;;;14.40;99.90;;;;;;5034570;28;20192;-76
2021/08/21 01:09:28;;;;;;;5.57;4.88;;;14.40;99.90;;;;;;5037402;28;20045;-76
2021/08/21 01:11:54;;;;;;;6.78;5.20;;;14.40;99.90;;;;;;5050363;28;20049;-77
2021/08/21 01:14:27;;;;;;;7.10;5.03;;;14.30;99.90;;;;;;5052826;28;20040;-76
2021/08/21 01:16:53;;;;;;;8.38;6.30;;;14.20;99.90;;;;;;5040341;28;20421;-78
2021/08/21 01:19:22;;;;;;;8.18;5.85;;;14.30;99.90;;;;;;5034420;28;20387;-77
2021/08/21 01:21:49;;;;;;;6.10;5.20;;;14.30;99.90;;;;;;5034594;28;20481;-77
2021/08/21 01:24:16;;;;;;;6.63;5.93;;;14.30;99.90;;;;;;5040274;28;20456;-78
2021/08/21 01:26:51;;;;;;;8.10;6.63;;;14.40;99.90;;;;;;5054674;28;20071;-77
2021/08/21 01:29:18;;;;;;;6.60;5.60;;;14.50;99.90;;;;;;5054214;28;20045;-78
2021/08/21 01:31:44;;;;;;;6.55;5.40;;;14.60;99.90;;;;;;5049000;28;20049;-78
2021/08/21 01:34:11;;;;;;;7.15;5.85;;;14.60;99.90;;;;;;5034135;28;20049;-78
2021/08/21 01:36:42;;;;;;;7.68;6.13;;;14.50;99.90;;;;;;5034810;28;20042;-78
2021/08/21 01:39:09;;;;;;;6.60;6.00;;;14.60;99.90;;;;;;5036463;28;20077;-78
2021/08/21 01:41:36;;;;;;;7.32;5.90;;;14.60;99.90;;;;;;5049082;28;20417;-78
2021/08/21 01:44:08;;;;;;;7.05;5.10;;;14.60;99.90;;;;;;5046978;28;20095;-78
2021/08/21 01:46:35;;;;;;;7.65;5.97;;;14.60;99.90;;;;;;5035447;28;20073;-77
2021/08/21 01:49:02;;;;;;;9.77;6.30;;;14.60;99.90;;;;;;5050977;28;20045;-78
2021/08/21 01:51:30;;;;;;;7.50;5.82;;;14.50;99.90;;;;;;5055221;28;20044;-78
2021/08/21 01:53:57;;;;;;;6.72;5.47;;;14.40;99.90;;;;;;5055372;28;20052;-79
2021/08/21 01:56:24;;;;;;;6.93;5.57;;;14.50;99.90;;;;;;5044117;28;20042;-79
2021/08/21 01:58:51;;;;;;;8.27;6.47;;;14.50;99.90;;;;;;5056618;28;20078;-80
2021/08/21 02:01:19;;;;;;;8.65;6.85;;;14.50;99.90;;;;;;5042439;28;20049;-78
2021/08/21 02:03:46;;;;;;;7.72;6.70;;;14.50;99.90;;;;;;5054450;28;20091;-79
2021/08/21 02:06:13;;;;;;;6.90;5.43;;;14.50;99.90;;;;;;5036149;28;20046;-80
2021/08/21 02:08:40;;;;;;;7.65;5.97;;;14.50;99.90;;;;;;5035700;28;20045;-79
2021/08/21 02:11:07;;;;;;;7.78;5.50;;;14.50;99.90;;;;;;5037127;28;20049;-79
2021/08/21 02:13:34;;;;;;;8.52;6.03;;;14.60;99.90;;;;;;5043750;28;20048;-78
2021/08/21 02:16:00;;;;;;;6.80;5.22;;;14.60;99.90;;;;;;5038443;28;20045;-79
2021/08/21 02:18:28;;;;;;;6.50;4.93;;;14.60;99.90;;;;;;5050171;28;20045;-80
2021/08/21 02:20:55;;;;;;;7.05;5.82;;;14.60;99.90;;;;;;5056397;28;20048;-80
2021/08/21 02:23:22;;;;;;;6.32;5.72;;;14.60;99.90;;;;;;5055030;28;20045;-80
2021/08/21 02:25:55;;;;;;;7.25;6.32;;;14.50;99.90;;;;;;5037384;28;20050;-79
2021/08/21 02:28:22;;;;;;;6.35;5.63;;;14.50;99.90;;;;;;5048850;28;20061;-79
2021/08/21 02:30:49;;;;;;;7.63;5.95;;;14.50;99.90;;;;;;5043767;28;20398;-79
2021/08/21 02:33:16;;;;;;;6.80;6.07;;;14.40;99.90;;;;;;5056991;28;20095;-78
2021/08/21 02:35:44;;;;;;;6.70;5.88;;;14.30;99.90;;;;;;5056950;28;20048;-77
2021/08/21 02:38:10;;;;;;;7.38;5.85;;;14.30;99.90;;;;;;5061069;28;20487;-78
2021/08/21 02:40:37;;;;;;;5.85;5.10;;;14.30;99.90;;;;;;5049415;28;20048;-78
2021/08/21 02:43:04;;;;;;;7.78;6.10;;;14.20;99.90;;;;;;5052148;28;20045;-80
2021/08/21 02:45:31;;;;;;;7.82;6.45;;;14.30;99.90;;;;;;5057974;28;20045;-78
2021/08/21 02:47:58;;;;;;;7.20;5.93;;;14.20;99.90;;;;;;5057302;28;20067;-79
2021/08/21 02:50:24;;;;;;;7.85;6.65;;;14.20;99.90;;;;;;5057231;28;20405;-78
2021/08/21 02:52:52;;;;;;;7.93;5.90;;;14.10;99.90;;;;;;5054568;28;20045;-78
2021/08/21 02:55:19;;;;;;;9.52;6.32;;;14.00;99.90;;;;;;5044799;28;20068;-78
2021/08/21 02:57:46;;;;;;;7.93;6.22;;;13.90;99.90;;;;;;5038455;28;20521;-78
2021/08/21 03:00:13;;;;;;;7.68;6.63;;;13.80;99.90;;;;;;5038530;28;20049;-79
2021/08/21 03:02:40;;;;;;;8.10;6.20;;;13.80;99.90;;;;;;5038371;28;20041;-78
2021/08/21 03:05:08;;;;;;;9.77;6.60;;;13.80;99.90;;;;;;5038890;28;20081;-77
2021/08/21 03:07:34;;;;;;;7.68;6.30;;;13.90;99.90;;;;;;5047260;28;20092;-77
2021/08/21 03:10:04;;;;;;;7.55;6.13;;;13.90;99.90;;;;;;5038196;28;20046;-77
2021/08/21 03:12:31;;;;;;;9.85;7.25;;;13.90;99.90;;;;;;5039009;28;20486;-79
2021/08/21 03:14:58;;;;;;;7.78;5.93;;;14.00;99.90;;;;;;5039117;28;20058;-79
2021/08/21 03:17:25;;;;;;;6.70;5.68;;;14.00;99.90;;;;;;5039849;28;20103;-77
2021/08/21 03:19:52;;;;;;;9.90;8.05;;;14.10;99.90;;;;;;5039406;28;20050;-80
2021/08/21 03:22:18;;;;;;;14.55;10.35;;;14.10;99.90;;;;;;5051233;28;20037;-80
2021/08/21 03:24:54;;;;;;;16.73;11.52;;;14.10;99.90;;;;;;5047174;28;20088;-79
2021/08/21 03:27:22;;;;;;;40.42;24.35;;;14.20;99.90;;;;;;5046554;28;20041;-80
2021/08/21 03:29:49;;;;;;;30.38;19.55;;;14.10;99.90;;;;;;5049386;28;20045;-81
2021/08/21 03:32:16;;;;;;;25.80;17.45;;;14.10;99.90;;;;;;5055940;28;20045;-80
2021/08/21 03:34:43;;;;;;;66.60;37.08;;;14.10;99.90;;;;;;5056896;28;20075;-77
2021/08/21 03:37:11;;;;;;;29.45;18.10;;;14.00;99.90;;;;;;5056446;28;20099;-77
2021/08/21 03:39:38;;;;;;;18.02;12.40;;;14.00;99.90;;;;;;5055727;28;20054;-78
2021/08/21 03:42:05;;;;;;;19.83;11.20;;;14.00;99.90;;;;;;5054996;28;20049;-78
2021/08/21 03:44:33;;;;;;;15.65;10.95;;;13.90;99.90;;;;;;5056083;28;20067;-77
2021/08/21 03:47:00;;;;;;;13.57;9.93;;;13.90;99.90;;;;;;5052373;28;20063;-77
2021/08/21 03:49:27;;;;;;;20.67;11.48;;;13.90;99.90;;;;;;5054745;28;20049;-76
2021/08/21 03:51:53;;;;;;;19.00;13.90;;;13.90;99.90;;;;;;5049032;28;20045;-77
2021/08/21 03:54:20;;;;;;;17.95;12.05;;;13.80;99.90;;;;;;5041073;28;20484;-77
2021/08/21 03:56:47;;;;;;;16.85;11.07;;;13.70;99.90;;;;;;5047438;28;20045;-78
2021/08/21 03:59:14;;;;;;;23.77;14.77;;;13.70;99.90;;;;;;5055801;28;20485;-77
2021/08/21 04:01:42;;;;;;;27.92;16.58;;;13.70;99.90;;;;;;5030099;28;20041;-77
2021/08/21 04:04:08;;;;;;;41.30;20.80;;;13.70;99.90;;;;;;5036170;28;20096;-77
2021/08/21 04:06:37;;;;;;;25.25;14.38;;;13.60;99.90;;;;;;5037653;28;20445;-77
2021/08/21 04:09:04;;;;;;;17.58;11.82;;;13.60;99.90;;;;;;5044733;28;20045;-78
2021/08/21 04:11:30;;;;;;;24.60;16.05;;;13.60;99.90;;;;;;5057380;28;20053;-78
2021/08/21 04:13:57;;;;;;;21.42;13.73;;;13.60;99.90;;;;;;5057606;28;20134;-77
2021/08/21 04:16:24;;;;;;;9.88;8.25;;;13.50;99.90;;;;;;5052236;28;20046;-77
2021/08/21 04:18:52;;;;;;;10.43;7.88;;;13.50;99.90;;;;;;5040216;28;20036;-78
2021/08/21 04:21:18;;;;;;;8.85;7.13;;;13.20;99.90;;;;;;5057318;28;20045;-77
2021/08/21 04:23:45;;;;;;;10.35;7.25;;;13.10;99.90;;;;;;5057267;28;20041;-77
2021/08/21 04:26:12;;;;;;;16.38;10.55;;;13.00;99.90;;;;;;5056745;28;20098;-77
2021/08/21 04:28:38;;;;;;;11.68;8.70;;;12.90;99.90;;;;;;5052077;28;20094;-77
2021/08/21 04:31:05;;;;;;;8.52;6.75;;;12.90;99.90;;;;;;5056938;28;20045;-77
2021/08/21 04:33:32;;;;;;;18.98;12.73;;;12.90;99.90;;;;;;5050067;28;20452;-77
2021/08/21 04:36:00;;;;;;;23.73;14.68;;;13.00;99.90;;;;;;5048211;28;20467;-78
2021/08/21 04:38:26;;;;;;;22.42;14.18;;;13.10;99.90;;;;;;5057282;28;20102;-78
2021/08/21 04:40:53;;;;;;;44.50;23.38;;;13.20;99.90;;;;;;5056409;28;20485;-78
2021/08/21 04:43:20;;;;;;;68.43;37.20;;;13.40;99.90;;;;;;5040546;28;20087;-77
2021/08/21 04:45:46;;;;;;;40.85;22.30;;;13.50;99.90;;;;;;5036976;28;20140;-77
2021/08/21 04:48:13;;;;;;;72.82;38.60;;;13.50;99.90;;;;;;5043418;28;20071;-78
2021/08/21 04:50:40;;;;;;;39.33;22.58;;;13.50;99.90;;;;;;5050877;28;20100;-78
2021/08/21 04:53:08;;;;;;;29.30;17.98;;;13.60;99.90;;;;;;5036699;28;20057;-78
2021/08/21 04:55:35;;;;;;;75.15;41.33;;;13.60;99.90;;;;;;5055556;28;20237;-78
2021/08/21 04:58:02;;;;;;;41.05;21.55;;;13.60;99.90;;;;;;5056661;28;20045;-79
2021/08/21 05:00:30;;;;;;;32.63;20.27;;;13.70;99.90;;;;;;5055501;28;20049;-78
2021/08/21 05:02:58;;;;;;;29.05;19.42;;;13.80;99.90;;;;;;5045452;28;20045;-79
2021/08/21 05:05:26;;;;;;;7.68;6.95;;;14.00;99.90;;;;;;5055608;28;20465;-78
2021/08/21 05:07:53;;;;;;;11.68;8.30;;;14.10;99.90;;;;;;5054839;28;20053;-78
2021/08/21 05:10:21;;;;;;;23.58;15.50;;;14.20;99.90;;;;;;5035390;28;20045;-77
2021/08/21 05:12:47;;;;;;;95.60;49.95;;;14.30;99.90;;;;;;5052732;28;20052;-77
2021/08/21 05:15:15;;;;;;;59.42;34.42;;;14.40;99.90;;;;;;5054581;28;20052;-78
2021/08/21 05:17:41;;;;;;;43.63;25.15;;;14.50;99.90;;;;;;5054299;28;20045;-78
2021/08/21 05:20:16;;;;;;;59.65;33.70;;;14.60;99.90;;;;;;5057122;28;20059;-77
2021/08/21 05:22:58;;;;;;;76.07;42.28;;;14.70;99.90;;;;;;5060762;28;20045;-77
2021/08/21 05:25:26;;;;;;;27.85;18.60;;;14.80;99.90;;;;;;5064744;28;20080;-78
2021/08/21 05:27:53;;;;;;;45.20;26.90;;;14.90;99.90;;;;;;5054583;28;20076;-76
2021/08/21 05:30:20;;;;;;;10.88;8.07;;;15.00;99.90;;;;;;5047622;28;20037;-77
2021/08/21 05:32:46;;;;;;;14.10;10.90;;;15.30;99.90;;;;;;5049175;28;20532;-77
2021/08/21 05:35:13;;;;;;;24.50;15.60;;;15.40;99.90;;;;;;5048784;28;20045;-79
2021/08/21 05:37:40;;;;;;;13.43;9.02;;;15.70;99.90;;;;;;5054070;28;20052;-79
2021/08/21 05:40:08;;;;;;;22.63;14.88;;;15.90;99.90;;;;;;5045195;28;20041;-79
2021/08/21 05:42:36;;;;;;;44.78;24.63;;;16.00;99.90;;;;;;5046764;28;20041;-80
2021/08/21 05:45:03;;;;;;;50.85;26.63;;;15.80;99.90;;;;;;5052721;28;20571;-81
2021/08/21 05:47:32;;;;;;;48.92;29.63;;;15.80;99.90;;;;;;5055482;28;20110;-79
2021/08/21 05:50:01;;;;;;;70.68;37.53;;;16.00;99.90;;;;;;5059277;28;20452;-78
2021/08/21 05:52:27;;;;;;;68.68;36.42;;;16.20;99.90;;;;;;5063230;28;20049;-77
2021/08/21 05:54:54;;;;;;;17.88;12.13;;;16.50;99.90;;;;;;5060980;28;20460;-78
2021/08/21 05:57:21;;;;;;;63.65;34.92;;;16.70;99.90;;;;;;5062263;28;20072;-78
2021/08/21 05:59:49;;;;;;;53.42;30.45;;;16.80;99.90;;;;;;5062765;28;20052;-77
2021/08/21 06:02:15;;;;;;;15.02;10.82;;;16.80;99.90;;;;;;5045714;28;20072;-77
2021/08/21 06:04:42;;;;;;;25.33;15.60;;;16.70;99.90;;;;;;5045443;28;20049;-76
2021/08/21 06:07:08;;;;;;;14.50;10.85;;;16.80;99.90;;;;;;5047300;28;20042;-78
2021/08/21 06:09:37;;;;;;;30.85;19.77;;;17.00;99.90;;;;;;5057738;28;20037;-78
2021/08/21 06:12:05;;;;;;;23.33;14.18;;;17.10;99.90;;;;;;5070191;28;20101;-77
2021/08/21 06:14:34;;;;;;;21.02;12.77;;;17.60;99.90;;;;;;5066301;28;20048;-78
2021/08/21 06:17:02;;;;;;;20.35;13.90;;;18.10;99.90;;;;;;5054784;28;20045;-78
2021/08/21 06:19:29;;;;;;;19.20;12.50;;;18.20;99.90;;;;;;5048650;28;20045;-77
2021/08/21 06:21:56;;;;;;;22.85;15.07;;;18.30;99.90;;;;;;5037477;28;20046;-77
2021/08/21 06:24:22;;;;;;;17.60;12.40;;;18.30;99.90;;;;;;5035152;28;20104;-79
2021/08/21 06:26:49;;;;;;;15.48;10.15;;;18.70;99.90;;;;;;5035090;28;20111;-79
2021/08/21 06:29:16;;;;;;;14.65;10.68;;;19.50;99.90;;;;;;5040445;28;20099;-77
2021/08/21 06:31:42;;;;;;;17.50;12.05;;;19.90;99.90;;;;;;5042961;28;20048;-77
2021/08/21 06:34:10;;;;;;;25.02;14.40;;;19.90;99.90;;;;;;5034583;28;20099;-83
2021/08/21 06:36:37;;;;;;;16.52;11.85;;;19.40;99.90;;;;;;5049831;28;20047;-82
2021/08/21 06:39:04;;;;;;;18.88;11.95;;;19.40;99.90;;;;;;5035277;28;20041;-80
2021/08/21 06:41:31;;;;;;;16.00;11.93;;;20.00;99.90;;;;;;5040479;28;20444;-78
2021/08/21 06:43:57;;;;;;;12.02;8.50;;;20.40;99.90;;;;;;5044081;28;20084;-80
2021/08/21 06:46:24;;;;;;;12.00;8.68;;;20.70;99.90;;;;;;5054974;28;20103;-82
2021/08/21 06:48:51;;;;;;;14.18;10.43;;;20.80;99.90;;;;;;5053590;28;20041;-80
2021/08/21 06:51:19;;;;;;;17.70;10.43;;;20.90;99.90;;;;;;5034797;28;20049;-78
2021/08/21 06:53:45;;;;;;;12.50;8.85;;;21.00;99.90;;;;;;5035313;28;20464;-80
2021/08/21 06:56:15;;;;;;;10.65;7.82;;;21.60;99.90;;;;;;5051225;28;20079;-78
2021/08/21 06:58:41;;;;;;;15.45;9.02;;;21.90;99.90;;;;;;5043717;28;20045;-81
2021/08/21 07:01:10;;;;;;;12.40;7.80;;;22.00;99.90;;;;;;5044910;28;20045;-78
2021/08/21 07:03:39;;;;;;;17.48;11.43;;;22.20;99.90;;;;;;5034140;28;20046;-77
2021/08/21 07:06:06;;;;;;;15.40;8.95;;;22.50;99.90;;;;;;5035089;28;20045;-78
2021/08/21 07:08:34;;;;;;;10.82;7.72;;;22.90;99.90;;;;;;5045412;28;20109;-79
2021/08/21 07:11:02;;;;;;;6.90;5.65;;;22.70;99.90;;;;;;5058022;28;20061;-77
2021/08/21 07:13:29;;;;;;;10.00;7.03;;;23.10;99.90;;;;;;5052350;28;20052;-80
2021/08/21 07:15:56;;;;;;;9.18;6.82;;;23.50;99.90;;;;;;5041771;28;20053;-80
2021/08/21 07:18:22;;;;;;;9.90;6.45;;;23.40;99.90;;;;;;5032966;28;20041;-78
2021/08/21 07:20:49;;;;;;;8.38;5.43;;;23.60;99.90;;;;;;5055019;28;20079;-77
2021/08/21 07:23:16;;;;;;;7.50;5.45;;;23.60;99.90;;;;;;5057734;28;20052;-78
2021/08/21 07:25:46;;;;;;;9.65;6.28;;;23.60;99.90;;;;;;5037956;28;20045;-77
2021/08/21 07:28:13;;;;;;;6.95;6.25;;;23.60;99.90;;;;;;5036087;28;20075;-78
2021/08/21 07:30:39;;;;;;;7.28;6.28;;;24.00;99.90;;;;;;5037224;28;20104;-79
2021/08/21 07:33:06;;;;;;;7.85;5.65;;;23.80;99.90;;;;;;5038782;28;20144;-81
2021/08/21 07:35:33;;;;;;;6.88;5.28;;;23.60;99.90;;;;;;5049995;28;20091;-81
2021/08/21 07:37:59;;;;;;;6.03;4.88;;;24.20;99.90;;;;;;5044445;28;20052;-80
2021/08/21 07:40:26;;;;;;;7.18;5.57;;;24.80;99.90;;;;;;5058404;28;20045;-79
2021/08/21 07:42:54;;;;;;;5.40;4.70;;;25.20;99.90;;;;;;5039393;28;20053;-78
2021/08/21 07:45:21;;;;;;;7.72;4.95;;;25.80;99.90;;;;;;5055127;28;20045;-78
2021/08/21 07:47:49;;;;;;;7.32;5.55;;;25.90;99.90;;;;;;5057276;28;20107;-80
2021/08/21 07:50:16;;;;;;;5.78;4.88;;;25.70;98.80;;;;;;5055488;28;20045;-78
2021/08/21 07:52:45;;;;;;;7.25;5.82;;;25.10;99.90;;;;;;5056599;28;20084;-79
2021/08/21 07:55:12;;;;;;;6.95;5.57;;;24.10;99.90;;;;;;5055809;28;20045;-80
2021/08/21 07:57:38;;;;;;;5.22;4.70;;;24.70;99.90;;;;;;5056235;28;20049;-79
2021/08/21 08:00:08;;;;;;;5.90;4.72;;;25.20;99.90;;;;;;5055328;28;20829;-80
2021/08/21 08:02:35;;;;;;;5.63;5.07;;;26.00;98.80;;;;;;5038309;28;20050;-80
2021/08/21 08:05:02;;;;;;;6.03;5.10;;;26.20;98.70;;;;;;5048475;28;20071;-80
2021/08/21 08:07:29;;;;;;;10.70;8.68;;;26.30;97.70;;;;;;5036404;28;20513;-81
2021/08/21 08:09:55;;;;;;;6.40;5.25;;;25.80;97.80;;;;;;5035846;28;20046;-79
2021/08/21 08:12:22;;;;;;;6.88;5.50;;;25.40;97.20;;;;;;5047235;28;20051;-80
2021/08/21 08:14:48;;;;;;;5.82;4.82;;;24.30;99.40;;;;;;5042303;28;20042;-78
2021/08/21 08:17:16;;;;;;;6.20;5.00;;;24.00;99.90;;;;;;5049464;28;20485;-77
2021/08/21 08:19:43;;;;;;;5.25;4.65;;;24.10;99.90;;;;;;5053065;28;20041;-77
2021/08/21 08:22:10;;;;;;;6.78;5.03;;;24.20;99.80;;;;;;5055442;28;20049;-78
2021/08/21 08:24:36;;;;;;;7.90;5.75;;;24.00;99.20;;;;;;5054647;28;20061;-78
2021/08/21 08:27:03;;;;;;;5.30;4.80;;;24.30;98.70;;;;;;5041209;28;20044;-76
2021/08/21 08:29:30;;;;;;;5.38;4.20;;;24.80;98.70;;;;;;5042222;28;20056;-78
2021/08/21 08:31:56;;;;;;;5.32;3.88;;;25.10;97.70;;;;;;5046078;28;20279;-78
2021/08/21 08:34:24;;;;;;;5.43;4.00;;;26.10;94.90;;;;;;5054419;28;20127;-80
2021/08/21 08:36:51;;;;;;;4.30;3.78;;;27.00;92.30;;;;;;5054317;28;20048;-77
2021/08/21 08:39:17;;;;;;;6.43;4.68;;;28.00;89.50;;;;;;5054073;28;20559;-76
2021/08/21 08:41:44;;;;;;;5.15;4.20;;;28.50;87.10;;;;;;5052479;28;20095;-74
2021/08/21 08:44:11;;;;;;;4.97;3.88;;;28.60;83.80;;;;;;5054230;28;20045;-77
2021/08/21 08:46:39;;;;;;;3.78;3.47;;;28.50;82.20;;;;;;5042808;28;20056;-78
2021/08/21 08:49:06;;;;;;;3.97;3.38;;;27.50;84.20;;;;;;5042458;28;20132;-79
2021/08/21 08:51:36;;;;;;;5.55;5.05;;;26.80;85.50;;;;;;5038082;28;20080;-74
2021/08/21 08:54:03;;;;;;;12.40;11.20;;;26.20;88.80;;;;;;5045032;28;20477;-74
2021/08/21 08:56:30;;;;;;;7.43;6.28;;;25.80;90.60;;;;;;5053180;28;20065;-78
2021/08/21 08:58:56;;;;;;;5.40;4.28;;;25.90;90.10;;;;;;5052364;28;20041;-76
2021/08/21 09:01:23;;;;;;;3.38;3.03;;;25.70;90.10;;;;;;5051880;28;20456;-78
2021/08/21 09:03:50;;;;;;;4.35;3.95;;;25.20;91.00;;;;;;5052550;28;20049;-77
2021/08/21 09:06:35;;;;;;;9.40;4.95;;;25.20;91.20;;;;;;5052909;28;20383;-76
2021/08/21 09:09:12;;;;;;;6.38;3.65;;;24.90;91.40;;;;;;5052775;28;20040;-78
2021/08/21 09:11:42;;;;;;;5.57;4.65;;;24.50;92.50;;;;;;5052088;28;20095;-75
2021/08/21 09:14:29;;;;;;;5.88;5.03;;;24.70;93.00;;;;;;5051717;28;20144;-74
2021/08/21 09:17:16;;;;;;;5.25;3.72;;;24.90;93.20;;;;;;5051864;28;20379;-74
2021/08/21 09:19:43;;;;;;;6.30;3.28;;;26.00;92.20;;;;;;5044471;28;20123;-78
2021/08/21 09:22:12;;;;;;;5.78;3.45;;;27.40;90.00;;;;;;5049034;28;20045;-76
2021/08/21 09:24:39;;;;;;;5.85;3.60;;;28.60;84.40;;;;;;5040555;28;20131;-72
2021/08/21 09:27:18;;;;;;;3.88;3.55;;;29.30;78.80;;;;;;5044530;28;20049;-72
2021/08/21 09:29:45;;;;;;;3.78;3.47;;;28.80;79.50;;;;;;5037887;28;20044;-76
2021/08/21 09:32:12;;;;;;;4.13;3.45;;;27.80;81.50;;;;;;5050790;28;20037;-75
2021/08/21 09:34:39;;;;;;;4.05;3.05;;;28.80;79.40;;;;;;5053947;28;20045;-76
2021/08/21 09:37:09;;;;;;;4.75;3.47;;;29.30;75.30;;;;;;5053793;28;20539;-76
2021/08/21 09:39:40;;;;;;;4.65;3.75;;;29.90;75.10;;;;;;5052477;28;20037;-76
2021/08/21 09:42:08;;;;;;;4.90;4.15;;;28.80;74.00;;;;;;5046885;28;20520;-75
2021/08/21 09:44:38;;;;;;;4.28;3.53;;;28.40;76.60;;;;;;5032757;28;20049;-75
2021/08/21 09:47:13;;;;;;;3.13;2.83;;;28.60;77.40;;;;;;5033500;28;20053;-76
2021/08/21 09:49:40;;;;;;;4.25;3.10;;;29.00;74.20;;;;;;5032714;28;20076;-76
2021/08/21 09:52:11;;;;;;;3.92;3.40;;;29.00;74.80;;;;;;5034106;28;20076;-77
2021/08/21 09:54:40;;;;;;;3.80;3.47;;;29.40;75.60;;;;;;5052339;28;20105;-81
2021/08/21 09:57:07;;;;;;;5.00;3.47;;;30.30;71.50;;;;;;5053450;28;20048;-76
2021/08/21 09:59:36;;;;;;;4.00;3.50;;;29.90;68.50;;;;;;5052597;28;20045;-76
2021/08/21 10:02:06;;;;;;;5.72;4.47;;;29.20;72.20;;;;;;5052111;28;20073;-77
2021/08/21 10:04:33;;;;;;;5.45;4.75;;;28.80;72.80;;;;;;5053166;28;20076;-79
2021/08/21 10:07:03;;;;;;;4.47;3.38;;;28.40;73.00;;;;;;5058773;28;20053;-77
2021/08/21 10:09:30;;;;;;;5.50;3.95;;;27.60;74.10;;;;;;5052831;28;20040;-77
2021/08/21 10:11:59;;;;;;;5.20;4.07;;;27.70;76.50;;;;;;5053225;28;20195;-81
2021/08/21 10:14:26;;;;;;;3.95;3.55;;;28.00;76.00;;;;;;5053512;28;20095;-77
2021/08/21 10:16:54;;;;;;;3.58;3.30;;;28.00;73.40;;;;;;5054401;28;20041;-75
2021/08/21 10:19:23;;;;;;;5.82;4.38;;;27.40;75.00;;;;;;5053003;28;20049;-77
2021/08/21 10:21:51;;;;;;;7.07;3.88;;;26.90;78.70;;;;;;5060701;28;20053;-74
2021/08/21 10:24:28;;;;;;;4.50;3.50;;;26.40;80.90;;;;;;5054008;28;20051;-75
2021/08/21 10:27:04;;;;;;;3.78;3.00;;;26.20;81.80;;;;;;5053607;28;20455;-76
2021/08/21 10:29:31;;;;;;;5.03;4.53;;;26.40;80.50;;;;;;5043223;28;20041;-76
2021/08/21 10:31:58;;;;;;;5.00;4.30;;;26.80;80.70;;;;;;5041279;28;20041;-75
2021/08/21 10:34:25;;;;;;;7.15;4.90;;;27.10;78.80;;;;;;5053311;28;20069;-74
2021/08/21 10:36:54;;;;;;;4.00;3.20;;;27.80;77.80;;;;;;5053170;28;20041;-75
2021/08/21 10:39:27;;;;;;;3.65;3.10;;;28.30;73.90;;;;;;5052117;28;20095;-74
2021/08/21 10:41:55;;;;;;;10.88;3.88;;;28.30;75.70;;;;;;5052670;28;20093;-75
2021/08/21 10:44:43;;;;;;;3.88;3.10;;;29.00;73.30;;;;;;5054040;28;20052;-74
2021/08/21 10:47:25;;;;;;;4.72;4.18;;;28.20;71.40;;;;;;5054812;28;20057;-75
2021/08/21 10:49:52;;;;;;;7.45;5.30;;;28.30;72.70;;;;;;5052089;28;20497;-75
2021/08/21 10:52:48;;;;;;;4.60;3.85;;;29.20;72.20;;;;;;5052586;28;20045;-77
2021/08/21 10:55:18;;;;;;;5.72;4.53;;;30.60;69.40;;;;;;5053939;28;20041;-76
2021/08/21 10:58:13;;;;;;;4.43;4.03;;;31.60;65.70;;;;;;5045160;28;20079;-75
2021/08/21 11:00:49;;;;;;;4.68;3.47;;;31.60;63.80;;;;;;5049142;28;20053;-77
2021/08/21 11:03:17;;;;;;;6.30;4.40;;;30.80;66.00;;;;;;5056720;28;20551;-74
2021/08/21 11:05:55;;;;;;;3.40;3.10;;;30.00;66.00;;;;;;5056361;28;20041;-74
2021/08/21 11:08:22;;;;;;;6.97;5.85;;;29.30;67.40;;;;;;5055875;28;20094;-79
2021/08/21 11:11:09;;;;;;;3.95;3.25;;;28.90;68.90;;;;;;5056231;28;20544;-76
2021/08/21 11:13:53;;;;;;;6.13;5.38;;;28.70;69.40;;;;;;5055228;28;20041;-76
2021/08/21 11:16:22;;;;;;;5.07;4.47;;;28.00;71.20;;;;;;5055055;28;20041;-77
2021/08/21 11:18:53;;;;;;;7.47;6.53;;;27.20;74.90;;;;;;5054394;28;20580;-78
2021/08/21 11:21:32;;;;;;;8.32;6.47;;;27.00;75.20;;;;;;5052657;28;20044;-75
2021/08/21 11:23:59;;;;;;;4.03;3.22;;;27.50;75.50;;;;;;5055541;28;20140;-75
2021/08/21 11:26:25;;;;;;;8.63;7.40;;;28.10;73.20;;;;;;5039346;28;20460;-75
2021/08/21 11:29:07;;;;;;;19.50;15.55;;;29.50;70.50;;;;;;5034349;28;20041;-75
2021/08/21 11:31:53;;;;;;;27.42;18.98;;;30.70;66.40;;;;;;5034649;28;20041;-75
2021/08/21 11:34:20;;;;;;;11.45;9.18;;;30.80;66.20;;;;;;5035207;28;20041;-78
2021/08/21 11:36:48;;;;;;;8.77;6.55;;;31.70;61.90;;;;;;5040670;28;20513;-77
2021/08/21 11:39:15;;;;;;;4.82;4.18;;;32.50;58.90;;;;;;5054238;28;20049;-76
2021/08/21 11:41:53;;;;;;;8.73;6.38;;;32.50;58.50;;;;;;5054377;28;20563;-76
2021/08/21 11:44:27;;;;;;;5.10;3.95;;;31.70;58.50;;;;;;5054431;28;20049;-76
2021/08/21 11:47:06;;;;;;;5.72;5.15;;;32.30;59.50;;;;;;5054376;28;20049;-78
2021/08/21 11:49:32;;;;;;;7.72;5.70;;;33.50;57.70;;;;;;5053932;28;20056;-77
2021/08/21 11:52:01;;;;;;;5.68;4.47;;;33.90;56.00;;;;;;5036022;28;20103;-77
2021/08/21 11:54:28;;;;;;;4.75;4.25;;;33.80;56.40;;;;;;5043924;28;20044;-77
2021/08/21 11:56:59;;;;;;;7.05;5.47;;;33.80;57.40;;;;;;5046786;28;20055;-76
2021/08/21 11:59:26;;;;;;;5.50;4.97;;;34.10;55.60;;;;;;5033841;28;20045;-78
2021/08/21 12:02:00;;;;;;;5.20;4.10;;;34.00;54.80;;;;;;5040489;28;20045;-76
2021/08/21 12:04:30;;;;;;;4.00;3.60;;;33.50;54.40;;;;;;5036283;28;20497;-75
2021/08/21 12:06:57;;;;;;;3.58;3.13;;;32.50;55.70;;;;;;5052953;28;20489;-79
2021/08/21 12:09:23;;;;;;;6.45;5.43;;;31.20;58.30;;;;;;5053600;28;20053;-76
2021/08/21 12:11:52;;;;;;;5.00;4.47;;;30.30;60.30;;;;;;5054203;28;20133;-74
2021/08/21 12:14:21;;;;;;;5.03;4.47;;;29.80;61.20;;;;;;5036135;28;20045;-74
2021/08/21 12:16:49;;;;;;;4.18;3.80;;;29.50;64.00;;;;;;5053725;28;20056;-75
2021/08/21 12:19:16;;;;;;;4.65;3.70;;;30.30;63.70;;;;;;5043590;28;20103;-74
2021/08/21 12:21:44;;;;;;;5.03;4.30;;;32.20;59.20;;;;;;5033441;28;20092;-75
2021/08/21 12:24:12;;;;;;;3.60;3.30;;;32.80;56.90;;;;;;5033775;28;20175;-75
2021/08/21 12:26:44;;;;;;;3.15;2.83;;;33.20;56.10;;;;;;5047926;28;20095;-75
2021/08/21 12:29:25;;;;;;;3.92;2.95;;;33.00;56.50;;;;;;5053014;28;20466;-76
2021/08/21 12:31:53;;;;;;;10.85;8.57;;;32.10;57.50;;;;;;5053008;28;20053;-75
2021/08/21 12:34:21;;;;;;;7.18;6.45;;;31.80;57.80;;;;;;5053400;28;20460;-75
2021/08/21 12:36:49;;;;;;;3.55;3.25;;;31.80;58.70;;;;;;5053730;28;20048;-75
2021/08/21 12:39:21;;;;;;;3.85;3.22;;;31.60;59.30;;;;;;5053148;28;20099;-75
2021/08/21 12:41:50;;;;;;;2.22;2.03;;;32.00;57.90;;;;;;5053249;28;20151;-74
2021/08/21 12:44:19;;;;;;;2.72;2.47;;;31.70;56.60;;;;;;5053507;28;20041;-75
2021/08/21 12:46:51;;;;;;;4.47;3.90;;;31.10;58.90;;;;;;5053389;28;20049;-81